createdAt,value
2017-06-23T00:00:23.925Z,53.01
2017-06-23T00:01:04.379Z,53.2
2017-06-23T00:01:44.833Z,52.82
2017-06-23T00:02:25.296Z,53.01
2017-06-23T00:03:05.747Z,52.82
2017-06-23T00:03:46.220Z,53.2
2017-06-23T00:04:26.673Z,53.3
2017-06-23T00:05:07.133Z,53.59
2017-06-23T00:05:47.591Z,53.5
2017-06-23T00:06:28.048Z,53.5
2017-06-23T00:07:08.510Z,53.79
2017-06-23T00:07:48.985Z,53.59
2017-06-23T00:08:29.444Z,53.59
2017-06-23T00:09:09.904Z,53.5
2017-06-23T00:09:50.374Z,53.4
2017-06-23T00:10:30.830Z,53.59
2017-06-23T00:11:11.287Z,53.2
2017-06-23T00:11:51.747Z,53.3
2017-06-23T00:12:32.199Z,53.11
2017-06-23T00:13:12.657Z,53.4
2017-06-23T00:13:53.116Z,53.11
2017-06-23T00:14:33.585Z,53.3
2017-06-23T00:15:14.030Z,53.3
2017-06-23T00:15:54.493Z,53.5
2017-06-23T00:16:34.961Z,53.4
2017-06-23T00:17:15.415Z,53.3
2017-06-23T00:17:55.881Z,53.69
2017-06-23T00:18:36.341Z,53.69
2017-06-23T00:19:16.800Z,53.59
2017-06-23T00:19:57.257Z,53.69
2017-06-23T00:20:37.719Z,53.5
2017-06-23T00:21:18.178Z,53.69
2017-06-23T00:21:58.639Z,53.69
2017-06-23T00:22:39.100Z,53.69
2017-06-23T00:23:19.556Z,54.28
2017-06-23T00:24:00.038Z,54.08
2017-06-23T00:24:40.478Z,53.89
2017-06-23T00:25:20.940Z,53.99
2017-06-23T00:26:01.382Z,53.89
2017-06-23T00:26:41.842Z,53.99
2017-06-23T00:27:22.300Z,54.08
2017-06-23T00:28:02.762Z,53.99
2017-06-23T00:28:43.220Z,53.99
2017-06-23T00:29:23.678Z,53.99
2017-06-23T00:30:04.142Z,53.99
2017-06-23T00:30:44.602Z,53.79
2017-06-23T00:31:25.056Z,53.99
2017-06-23T00:32:05.521Z,53.79
2017-06-23T00:32:45.972Z,53.99
2017-06-23T00:33:26.430Z,53.99
2017-06-23T00:34:06.893Z,53.99
2017-06-23T00:34:47.355Z,54.08
2017-06-23T00:35:27.815Z,53.99
2017-06-23T00:36:08.287Z,53.99
2017-06-23T00:36:48.744Z,54.18
2017-06-23T00:37:29.190Z,54.18
2017-06-23T00:38:09.646Z,54.28
2017-06-23T00:38:50.109Z,54.38
2017-06-23T00:39:30.567Z,54.47
2017-06-23T00:40:11.035Z,54.38
2017-06-23T00:40:51.490Z,54.57
2017-06-23T00:41:31.951Z,54.08
2017-06-23T00:42:12.409Z,54.57
2017-06-23T00:42:52.869Z,54.57
2017-06-23T00:43:33.327Z,54.47
2017-06-23T00:44:13.785Z,54.28
2017-06-23T00:44:54.249Z,54.66
2017-06-23T00:45:34.708Z,54.28
2017-06-23T00:46:15.165Z,54.18
2017-06-23T00:46:55.623Z,54.28
2017-06-23T00:47:36.076Z,54.18
2017-06-23T00:48:16.537Z,54.28
2017-06-23T00:48:56.986Z,54.28
2017-06-23T00:49:37.449Z,54.28
2017-06-23T00:50:17.906Z,53.99
2017-06-23T00:50:58.362Z,54.28
2017-06-23T00:51:38.820Z,53.89
2017-06-23T00:52:19.275Z,53.99
2017-06-23T00:52:59.743Z,53.99
2017-06-23T00:53:40.194Z,53.89
2017-06-23T00:54:20.668Z,53.89
2017-06-23T00:55:01.127Z,53.79
2017-06-23T00:55:41.587Z,53.99
2017-06-23T00:56:22.066Z,54.08
2017-06-23T00:57:02.521Z,53.99
2017-06-23T00:57:43.003Z,54.08
2017-06-23T00:58:23.447Z,54.08
2017-06-23T00:59:03.940Z,53.89
2017-06-23T00:59:44.348Z,53.99
2017-06-23T01:00:24.806Z,53.99
2017-06-23T01:01:05.265Z,53.89
2017-06-23T01:01:45.721Z,53.99
2017-06-23T01:02:26.179Z,53.99
2017-06-23T01:03:06.639Z,54.18
2017-06-23T01:03:47.105Z,53.69
2017-06-23T01:04:27.546Z,53.59
2017-06-23T01:05:08.006Z,53.79
2017-06-23T01:05:48.464Z,53.69
2017-06-23T01:06:28.930Z,53.79
2017-06-23T01:07:09.388Z,53.5
2017-06-23T01:07:49.847Z,53.69
2017-06-23T01:08:30.303Z,53.4
2017-06-23T01:09:10.761Z,53.3
2017-06-23T01:09:51.222Z,53.4
2017-06-23T01:10:31.679Z,53.3
2017-06-23T01:11:12.139Z,53.3
2017-06-23T01:11:52.597Z,53.3
2017-06-23T01:12:33.062Z,53.2
2017-06-23T01:13:13.529Z,53.11
2017-06-23T01:13:53.990Z,53.59
2017-06-23T01:14:34.447Z,53.59
2017-06-23T01:15:14.905Z,53.4
2017-06-23T01:15:55.366Z,53.4
2017-06-23T01:16:35.821Z,53.69
2017-06-23T01:17:16.305Z,53.59
2017-06-23T01:17:56.750Z,53.5
2017-06-23T01:18:37.208Z,53.3
2017-06-23T01:19:17.664Z,53.11
2017-06-23T01:19:58.134Z,53.28
2017-06-23T01:20:38.575Z,53.01
2017-06-23T01:21:19.029Z,52.92
2017-06-23T01:21:59.488Z,53.01
2017-06-23T01:22:39.950Z,53.3
2017-06-23T01:23:20.411Z,53.11
2017-06-23T01:24:00.870Z,53.11
2017-06-23T01:24:41.332Z,53.01
2017-06-23T01:25:21.789Z,53.11
2017-06-23T01:26:02.248Z,53.01
2017-06-23T01:26:42.713Z,53.2
2017-06-23T01:27:23.170Z,52.92
2017-06-23T01:28:03.623Z,52.72
2017-06-23T01:28:44.082Z,52.43
2017-06-23T01:29:24.545Z,52.72
2017-06-23T01:30:05.000Z,52.89
2017-06-23T01:30:45.459Z,52.69
2017-06-23T01:31:25.910Z,52.89
2017-06-23T01:32:06.368Z,52.89
2017-06-23T01:32:46.828Z,52.79
2017-06-23T01:33:27.287Z,52.79
2017-06-23T01:34:07.749Z,52.59
2017-06-23T01:34:48.191Z,52.4
2017-06-23T01:35:28.647Z,52.89
2017-06-23T01:36:09.108Z,52.5
2017-06-23T01:36:49.574Z,52.59
2017-06-23T01:37:30.035Z,52.5
2017-06-23T01:38:10.493Z,52.59
2017-06-23T01:38:50.948Z,52.59
2017-06-23T01:39:31.408Z,52.79
2017-06-23T01:40:11.866Z,52.69
2017-06-23T01:40:52.324Z,52.59
2017-06-23T01:41:32.786Z,52.79
2017-06-23T01:42:13.234Z,52.98
2017-06-23T01:42:53.692Z,52.69
2017-06-23T01:43:34.153Z,52.69
2017-06-23T01:44:14.612Z,52.33
2017-06-23T01:44:55.072Z,52.79
2017-06-23T01:45:35.535Z,52.43
2017-06-23T01:46:15.996Z,52.53
2017-06-23T01:46:56.454Z,52.62
2017-06-23T01:47:36.915Z,52.53
2017-06-23T01:48:17.371Z,52.53
2017-06-23T01:48:57.828Z,52.72
2017-06-23T01:49:38.288Z,52.53
2017-06-23T01:50:18.747Z,52.53
2017-06-23T01:50:59.208Z,52.53
2017-06-23T01:51:39.665Z,52.53
2017-06-23T01:52:20.130Z,52.72
2017-06-23T01:53:00.582Z,52.53
2017-06-23T01:53:41.036Z,52.53
2017-06-23T01:54:21.490Z,52.53
2017-06-23T01:55:01.949Z,52.53
2017-06-23T01:55:42.408Z,52.59
2017-06-23T01:56:22.865Z,52.43
2017-06-23T01:57:03.308Z,52.4
2017-06-23T01:57:43.767Z,52.59
2017-06-23T01:58:24.231Z,52.59
2017-06-23T01:59:04.695Z,52.59
2017-06-23T01:59:45.149Z,52.5
2017-06-23T02:00:25.608Z,52.4
2017-06-23T02:01:06.065Z,52.4
2017-06-23T02:01:46.521Z,52.5
2017-06-23T02:02:26.978Z,52.5
2017-06-23T02:03:07.432Z,52.59
2017-06-23T02:03:47.888Z,52.59
2017-06-23T02:04:28.348Z,52.72
2017-06-23T02:05:08.798Z,52.5
2017-06-23T02:05:49.259Z,52.69
2017-06-23T02:06:29.721Z,51.92
2017-06-23T02:07:10.179Z,52.11
2017-06-23T02:07:50.636Z,52.21
2017-06-23T02:08:31.092Z,52.11
2017-06-23T02:09:11.551Z,52.21
2017-06-23T02:09:52.006Z,52.21
2017-06-23T02:10:32.461Z,52.21
2017-06-23T02:11:12.919Z,52.01
2017-06-23T02:11:53.382Z,52.31
2017-06-23T02:12:33.843Z,52.31
2017-06-23T02:13:14.303Z,52.01
2017-06-23T02:13:54.764Z,51.92
2017-06-23T02:14:35.228Z,51.72
2017-06-23T02:15:15.687Z,51.82
2017-06-23T02:15:56.147Z,52.11
2017-06-23T02:16:36.619Z,52.11
2017-06-23T02:17:17.069Z,52.01
2017-06-23T02:17:57.533Z,52.01
2017-06-23T02:18:37.986Z,52.01
2017-06-23T02:19:18.450Z,52.01
2017-06-23T02:19:58.908Z,51.82
2017-06-23T02:20:39.366Z,52.21
2017-06-23T02:21:19.824Z,52.21
2017-06-23T02:22:00.280Z,51.82
2017-06-23T02:22:40.743Z,51.72
2017-06-23T02:23:21.200Z,51.82
2017-06-23T02:24:01.659Z,51.72
2017-06-23T02:24:42.113Z,52.11
2017-06-23T02:25:22.571Z,52.01
2017-06-23T02:26:03.037Z,51.82
2017-06-23T02:26:43.494Z,51.53
2017-06-23T02:27:23.950Z,51.53
2017-06-23T02:28:04.407Z,51.72
2017-06-23T02:28:44.867Z,51.62
2017-06-23T02:29:25.320Z,51.62
2017-06-23T02:30:05.776Z,51.72
2017-06-23T02:30:46.222Z,51.53
2017-06-23T02:31:26.681Z,51.43
2017-06-23T02:32:07.134Z,51.62
2017-06-23T02:32:47.594Z,51.72
2017-06-23T02:33:28.050Z,52.01
2017-06-23T02:34:08.547Z,51.72
2017-06-23T02:34:48.997Z,51.92
2017-06-23T02:35:29.475Z,51.82
2017-06-23T02:36:09.897Z,52.11
2017-06-23T02:36:50.348Z,51.92
2017-06-23T02:37:30.809Z,51.33
2017-06-23T02:38:11.252Z,51.62
2017-06-23T02:38:51.705Z,51.53
2017-06-23T02:39:32.173Z,51.43
2017-06-23T02:40:12.637Z,51.43
2017-06-23T02:40:53.098Z,51.33
2017-06-23T02:41:33.553Z,51.23
2017-06-23T02:42:14.015Z,51.33
2017-06-23T02:42:54.477Z,51.33
2017-06-23T02:43:34.948Z,51.33
2017-06-23T02:44:15.412Z,51.31
2017-06-23T02:44:55.872Z,51.33
2017-06-23T02:45:36.351Z,51.23
2017-06-23T02:46:16.798Z,51.33
2017-06-23T02:46:57.258Z,51.14
2017-06-23T02:47:37.712Z,51.33
2017-06-23T02:48:18.170Z,51.14
2017-06-23T02:50:11.071Z,51.33
2017-06-23T02:50:51.532Z,50.85
2017-06-23T02:51:31.988Z,51.33
2017-06-23T02:52:12.451Z,51.04
2017-06-23T02:52:52.906Z,50.95
2017-06-23T02:53:33.361Z,50.85
2017-06-23T02:54:13.820Z,50.95
2017-06-23T02:54:54.276Z,51.14
2017-06-23T02:55:34.738Z,51.14
2017-06-23T02:56:15.188Z,51.04
2017-06-23T02:56:55.651Z,50.95
2017-06-23T02:57:36.121Z,50.95
2017-06-23T02:58:16.570Z,50.95
2017-06-23T02:58:57.007Z,50.95
2017-06-23T02:59:37.470Z,50.95
2017-06-23T03:00:17.926Z,51.14
2017-06-23T03:00:58.377Z,51.14
2017-06-23T03:01:38.837Z,51.14
2017-06-23T03:02:19.290Z,51.04
2017-06-23T03:02:59.755Z,51.23
2017-06-23T03:03:40.209Z,51.23
2017-06-23T03:04:20.670Z,51.23
2017-06-23T03:05:01.125Z,51.33
2017-06-23T03:05:41.594Z,50.95
2017-06-23T03:06:22.048Z,51.04
2017-06-23T03:07:02.512Z,50.95
2017-06-23T03:07:42.971Z,51.14
2017-06-23T03:08:23.438Z,51.23
2017-06-23T03:09:03.892Z,51.14
2017-06-23T03:09:44.345Z,51.04
2017-06-23T03:10:24.803Z,50.95
2017-06-23T03:11:05.261Z,51.01
2017-06-23T03:11:45.716Z,51.33
2017-06-23T03:12:26.179Z,51.14
2017-06-23T03:13:06.637Z,51.14
2017-06-23T03:13:47.102Z,51.01
2017-06-23T03:14:27.558Z,51.43
2017-06-23T03:15:08.022Z,51.11
2017-06-23T03:15:48.467Z,51.14
2017-06-23T03:16:28.924Z,51.04
2017-06-23T03:17:09.386Z,51.33
2017-06-23T03:17:49.848Z,51.33
2017-06-23T03:18:30.303Z,51.04
2017-06-23T03:19:10.762Z,51.33
2017-06-23T03:19:51.223Z,51.04
2017-06-23T03:20:31.680Z,51.33
2017-06-23T03:21:12.135Z,51.04
2017-06-23T03:21:52.626Z,51.14
2017-06-23T03:22:33.039Z,51.23
2017-06-23T03:23:13.483Z,51.04
2017-06-23T03:23:53.950Z,51.21
2017-06-23T03:24:34.408Z,51.43
2017-06-23T03:25:14.866Z,51.23
2017-06-23T03:25:55.325Z,51.04
2017-06-23T03:26:35.781Z,51.43
2017-06-23T03:27:16.238Z,51.04
2017-06-23T03:27:56.705Z,51.33
2017-06-23T03:28:37.165Z,51.04
2017-06-23T03:29:17.626Z,51.04
2017-06-23T03:29:58.079Z,51.04
2017-06-23T03:30:38.533Z,51.23
2017-06-23T03:31:19.019Z,51.23
2017-06-23T03:31:59.479Z,51.23
2017-06-23T03:32:39.937Z,51.14
2017-06-23T03:33:20.397Z,51.14
2017-06-23T03:34:00.855Z,51.14
2017-06-23T03:34:41.315Z,51.33
2017-06-23T03:35:21.770Z,51.14
2017-06-23T03:36:02.233Z,51.23
2017-06-23T03:36:42.689Z,51.33
2017-06-23T03:37:23.151Z,51.23
2017-06-23T03:38:03.608Z,51.43
2017-06-23T03:38:44.066Z,51.33
2017-06-23T03:39:24.522Z,51.43
2017-06-23T03:40:04.975Z,52.21
2017-06-23T03:40:45.433Z,52.01
2017-06-23T03:41:25.886Z,52.11
2017-06-23T03:42:06.350Z,52.01
2017-06-23T03:42:46.798Z,51.72
2017-06-23T03:43:27.254Z,51.72
2017-06-23T03:44:07.717Z,51.72
2017-06-23T03:44:48.181Z,51.43
2017-06-23T03:45:28.643Z,51.82
2017-06-23T03:46:09.098Z,51.43
2017-06-23T03:46:49.558Z,51.6
2017-06-23T03:47:30.016Z,51.62
2017-06-23T03:48:10.474Z,51.62
2017-06-23T03:48:50.939Z,52.01
2017-06-23T03:49:31.403Z,51.62
2017-06-23T03:50:11.862Z,51.89
2017-06-23T03:50:52.321Z,52.01
2017-06-23T03:51:32.786Z,52.11
2017-06-23T03:52:13.239Z,51.92
2017-06-23T03:52:53.703Z,51.89
2017-06-23T03:53:34.174Z,51.82
2017-06-23T03:54:14.637Z,52.31
2017-06-23T03:54:55.118Z,51.92
2017-06-23T03:55:35.590Z,52.21
2017-06-23T03:56:16.041Z,52.67
2017-06-23T03:56:56.491Z,52.37
2017-06-23T03:57:36.949Z,52.37
2017-06-23T03:58:17.407Z,52.4
2017-06-23T03:58:57.867Z,52.57
2017-06-23T03:59:38.329Z,52.47
2017-06-23T04:00:18.794Z,52.47
2017-06-23T04:00:59.263Z,52.4
2017-06-23T04:01:39.719Z,52.59
2017-06-23T04:02:20.180Z,51.92
2017-06-23T04:03:00.631Z,51.7
2017-06-23T04:03:41.086Z,51.82
2017-06-23T04:04:21.544Z,52.11
2017-06-23T04:05:02.005Z,52.21
2017-06-23T04:05:42.451Z,51.82
2017-06-23T04:06:22.907Z,52.21
2017-06-23T04:07:03.364Z,52.01
2017-06-23T04:07:43.820Z,51.89
2017-06-23T04:08:24.301Z,51.62
2017-06-23T04:09:04.761Z,51.92
2017-06-23T04:09:45.235Z,52.11
2017-06-23T04:10:25.694Z,51.92
2017-06-23T04:11:06.166Z,51.53
2017-06-23T04:11:46.625Z,51.62
2017-06-23T04:12:27.083Z,51.72
2017-06-23T04:13:07.541Z,51.43
2017-06-23T04:13:48.003Z,51.82
2017-06-23T04:14:28.481Z,52.01
2017-06-23T04:15:08.936Z,51.82
2017-06-23T04:15:49.394Z,52.11
2017-06-23T04:16:29.851Z,52.01
2017-06-23T04:17:10.313Z,52.01
2017-06-23T04:17:50.771Z,51.53
2017-06-23T04:18:31.232Z,51.33
2017-06-23T04:19:11.689Z,51.43
2017-06-23T04:19:52.150Z,51.23
2017-06-23T04:20:32.606Z,51.33
2017-06-23T04:21:13.060Z,51.23
2017-06-23T04:21:53.505Z,51.23
2017-06-23T04:22:33.965Z,51.23
2017-06-23T04:23:14.423Z,51.04
2017-06-23T04:23:54.889Z,51.04
2017-06-23T04:24:35.336Z,51.43
2017-06-23T04:25:15.792Z,51.04
2017-06-23T04:25:56.249Z,51.33
2017-06-23T04:26:36.727Z,50.95
2017-06-23T04:27:17.169Z,50.95
2017-06-23T04:27:57.627Z,50.95
2017-06-23T04:28:38.089Z,50.95
2017-06-23T04:29:18.545Z,51.14
2017-06-23T04:29:59.009Z,51.04
2017-06-23T04:30:39.457Z,50.95
2017-06-23T04:31:19.929Z,50.95
2017-06-23T04:32:00.386Z,51.23
2017-06-23T04:32:40.851Z,51.14
2017-06-23T04:33:21.306Z,51.33
2017-06-23T04:34:01.763Z,51.14
2017-06-23T04:34:42.226Z,51.23
2017-06-23T04:35:22.678Z,51.14
2017-06-23T04:36:03.134Z,50.95
2017-06-23T04:36:43.596Z,50.85
2017-06-23T04:37:24.051Z,51.04
2017-06-23T04:38:04.514Z,50.65
2017-06-23T04:38:44.970Z,50.85
2017-06-23T04:39:25.431Z,50.85
2017-06-23T04:40:05.888Z,50.85
2017-06-23T04:40:46.355Z,50.75
2017-06-23T04:41:26.813Z,50.75
2017-06-23T04:42:07.271Z,50.95
2017-06-23T04:42:47.731Z,50.95
2017-06-23T04:43:28.190Z,51.04
2017-06-23T04:44:08.647Z,50.95
2017-06-23T04:44:49.106Z,50.75
2017-06-23T04:45:29.555Z,50.75
2017-06-23T04:46:10.013Z,50.75
2017-06-23T04:46:50.484Z,50.75
2017-06-23T04:47:30.940Z,50.85
2017-06-23T04:48:11.405Z,50.87
2017-06-23T04:48:51.862Z,50.75
2017-06-23T04:49:32.321Z,50.75
2017-06-23T04:50:12.793Z,50.65
2017-06-23T04:50:53.233Z,50.78
2017-06-23T04:51:33.687Z,50.65
2017-06-23T04:52:14.148Z,50.85
2017-06-23T04:52:54.617Z,50.65
2017-06-23T04:53:35.074Z,50.85
2017-06-23T04:54:15.546Z,50.85
2017-06-23T04:56:13.233Z,51.14
2017-06-23T04:56:53.692Z,51.14
2017-06-23T04:57:34.151Z,51.14
2017-06-23T04:58:14.613Z,51.04
2017-06-23T04:58:55.068Z,51.07
2017-06-23T04:59:35.524Z,51.14
2017-06-23T05:00:15.989Z,51.04
2017-06-23T05:00:56.453Z,50.85
2017-06-23T05:01:36.955Z,50.65
2017-06-23T05:02:17.436Z,50.85
2017-06-23T05:02:57.893Z,50.75
2017-06-23T05:03:38.315Z,50.65
2017-06-23T05:04:18.771Z,50.95
2017-06-23T05:04:59.218Z,50.56
2017-06-23T05:07:13.523Z,50.58
2017-06-23T05:07:53.976Z,50.65
2017-06-23T05:08:34.436Z,50.75
2017-06-23T05:09:14.890Z,50.56
2017-06-23T05:09:55.348Z,50.65
2017-06-23T05:10:35.810Z,50.56
2017-06-23T05:11:16.268Z,50.16
2017-06-23T05:11:56.730Z,50.56
2017-06-23T05:12:37.188Z,50.16
2017-06-23T05:13:17.647Z,50.16
2017-06-23T05:13:58.107Z,50.56
2017-06-23T05:14:38.562Z,50.16
2017-06-23T05:15:19.011Z,50.36
2017-06-23T05:15:59.460Z,50.46
2017-06-23T05:16:39.926Z,50.07
2017-06-23T05:17:20.384Z,50.16
2017-06-23T05:18:00.841Z,50.46
2017-06-23T05:18:41.301Z,50.29
2017-06-23T05:19:21.758Z,50.26
2017-06-23T05:20:02.210Z,50.29
2017-06-23T05:20:42.674Z,50.29
2017-06-23T05:21:23.124Z,50.36
2017-06-23T05:22:03.595Z,50.38
2017-06-23T05:22:44.050Z,50.26
2017-06-23T05:23:24.509Z,50.29
2017-06-23T05:24:04.969Z,50.19
2017-06-23T05:24:45.428Z,50.19
2017-06-23T05:25:25.879Z,50.29
2017-06-23T05:26:06.343Z,50.38
2017-06-23T05:26:46.798Z,50.36
2017-06-23T05:27:27.279Z,50.38
2017-06-23T05:28:07.795Z,50.38
2017-06-23T05:28:48.195Z,50.36
2017-06-23T05:29:28.643Z,50.38
2017-06-23T05:30:09.102Z,50.09
2017-06-23T05:30:49.564Z,50.09
2017-06-23T05:31:30.026Z,50.07
2017-06-23T05:32:10.486Z,50.29
2017-06-23T05:32:50.956Z,50.29
2017-06-23T05:33:31.471Z,50.19
2017-06-23T05:34:11.929Z,50.09
2017-06-23T05:34:52.374Z,50.07
2017-06-23T05:35:32.830Z,50.19
2017-06-23T05:36:13.286Z,50.19
2017-06-23T05:36:53.741Z,50.19
2017-06-23T05:37:34.198Z,50.19
2017-06-23T05:38:14.654Z,50.09
2017-06-23T05:38:55.114Z,50.09
2017-06-23T05:39:35.567Z,49.99
2017-06-23T05:40:18.121Z,50.09
2017-06-23T05:40:58.578Z,49.99
2017-06-23T05:41:39.036Z,50.09
2017-06-23T05:42:19.494Z,49.99
2017-06-23T05:42:59.954Z,50.38
2017-06-23T05:43:40.414Z,50.48
2017-06-23T05:44:20.894Z,50.38
2017-06-23T05:45:01.331Z,50.38
2017-06-23T05:45:41.797Z,50.29
2017-06-23T05:46:22.256Z,50.19
2017-06-23T05:47:02.699Z,50.19
2017-06-23T05:47:43.160Z,50.09
2017-06-23T05:48:23.618Z,50.09
2017-06-23T05:49:04.081Z,50.48
2017-06-23T05:49:44.543Z,50.09
2017-06-23T05:50:25.002Z,49.9
2017-06-23T05:51:05.465Z,50.38
2017-06-23T05:51:45.923Z,50.09
2017-06-23T05:52:26.373Z,49.99
2017-06-23T05:53:06.832Z,50.09
2017-06-23T05:53:47.290Z,50.38
2017-06-23T05:54:27.750Z,49.99
2017-06-23T05:55:08.213Z,49.9
2017-06-23T05:55:48.672Z,49.99
2017-06-23T05:56:29.132Z,50.19
2017-06-23T05:57:09.593Z,50.19
2017-06-23T05:57:50.042Z,50.09
2017-06-23T05:58:30.506Z,50.38
2017-06-23T05:59:10.973Z,50.09
2017-06-23T05:59:51.467Z,50.09
2017-06-23T06:00:31.931Z,50.19
2017-06-23T06:01:12.383Z,50.19
2017-06-23T06:01:52.847Z,50.19
2017-06-23T06:02:33.307Z,50.09
2017-06-23T06:03:13.765Z,50.09
2017-06-23T06:03:54.212Z,50.19
2017-06-23T06:04:34.667Z,49.99
2017-06-23T06:05:15.141Z,50.19
2017-06-23T06:05:55.591Z,50.29
2017-06-23T06:06:36.056Z,50.38
2017-06-23T06:07:16.522Z,50.29
2017-06-23T06:07:56.979Z,50.09
2017-06-23T06:08:37.437Z,50.29
2017-06-23T06:09:17.896Z,50.29
2017-06-23T06:09:58.361Z,50.29
2017-06-23T06:10:38.815Z,50.29
2017-06-23T06:11:19.277Z,50.29
2017-06-23T06:11:59.746Z,50.29
2017-06-23T06:12:40.188Z,50.48
2017-06-23T06:13:20.653Z,50.09
2017-06-23T06:14:01.115Z,49.9
2017-06-23T06:15:58.805Z,50.09
2017-06-23T06:16:39.253Z,50.09
2017-06-23T06:17:19.702Z,49.99
2017-06-23T06:18:00.150Z,49.99
2017-06-23T06:18:40.614Z,49.9
2017-06-23T06:19:21.076Z,50.09
2017-06-23T06:20:01.523Z,50.09
2017-06-23T06:20:41.974Z,49.8
2017-06-23T06:21:22.436Z,49.99
2017-06-23T06:22:02.897Z,50.09
2017-06-23T06:22:43.383Z,49.8
2017-06-23T06:23:23.808Z,49.99
2017-06-23T06:24:04.269Z,49.8
2017-06-23T06:24:44.727Z,49.99
2017-06-23T06:25:25.183Z,49.9
2017-06-23T06:26:05.642Z,49.99
2017-06-23T06:26:46.099Z,49.9
2017-06-23T06:27:26.552Z,49.9
2017-06-23T06:28:07.014Z,49.71
2017-06-23T06:28:47.473Z,49.61
2017-06-23T06:29:27.933Z,49.61
2017-06-23T06:30:08.412Z,49.41
2017-06-23T06:30:48.874Z,49.9
2017-06-23T06:31:29.335Z,49.41
2017-06-23T06:32:09.795Z,49.9
2017-06-23T06:32:50.261Z,49.51
2017-06-23T06:33:30.724Z,49.61
2017-06-23T06:34:11.171Z,49.71
2017-06-23T06:34:51.633Z,49.61
2017-06-23T06:35:32.095Z,49.61
2017-06-23T06:36:12.552Z,49.51
2017-06-23T06:36:53.012Z,49.71
2017-06-23T06:37:33.464Z,49.61
2017-06-23T06:38:13.912Z,49.61
2017-06-23T06:38:54.370Z,49.71
2017-06-23T06:39:34.830Z,49.61
2017-06-23T06:40:15.291Z,49.71
2017-06-23T06:40:55.745Z,49.71
2017-06-23T06:41:36.217Z,49.51
2017-06-23T06:42:16.662Z,49.61
2017-06-23T06:42:57.126Z,49.61
2017-06-23T06:43:37.580Z,49.61
2017-06-23T06:44:18.036Z,49.51
2017-06-23T06:44:58.494Z,49.61
2017-06-23T06:45:38.954Z,49.51
2017-06-23T06:46:19.406Z,49.71
2017-06-23T06:46:59.864Z,49.51
2017-06-23T06:47:40.320Z,49.71
2017-06-23T06:48:20.775Z,49.8
2017-06-23T06:49:01.232Z,49.71
2017-06-23T06:49:41.690Z,49.51
2017-06-23T06:50:22.161Z,49.61
2017-06-23T06:51:02.624Z,49.71
2017-06-23T06:51:43.085Z,49.71
2017-06-23T06:52:23.542Z,49.8
2017-06-23T06:53:03.990Z,49.8
2017-06-23T06:53:44.439Z,49.8
2017-06-23T06:54:24.902Z,49.9
2017-06-23T06:55:05.359Z,49.41
2017-06-23T06:55:45.818Z,49.8
2017-06-23T06:56:26.280Z,49.8
2017-06-23T06:57:06.736Z,49.71
2017-06-23T06:57:47.198Z,49.8
2017-06-23T06:58:27.658Z,49.71
2017-06-23T06:59:08.113Z,49.71
2017-06-23T06:59:48.594Z,49.51
2017-06-23T07:00:29.048Z,49.9
2017-06-23T07:01:09.509Z,49.9
2017-06-23T07:01:49.965Z,49.9
2017-06-23T07:02:30.424Z,49.8
2017-06-23T07:03:10.887Z,49.9
2017-06-23T07:03:51.352Z,49.9
2017-06-23T07:04:31.811Z,49.9
2017-06-23T07:05:12.266Z,49.9
2017-06-23T07:05:52.723Z,49.51
2017-06-23T07:06:33.183Z,49.71
2017-06-23T07:07:13.632Z,49.8
2017-06-23T07:07:54.089Z,49.8
2017-06-23T07:08:34.543Z,49.41
2017-06-23T07:09:15.007Z,49.9
2017-06-23T07:09:55.479Z,49.71
2017-06-23T07:10:35.925Z,49.8
2017-06-23T07:11:16.389Z,49.51
2017-06-23T07:11:56.842Z,49.71
2017-06-23T07:12:37.301Z,49.61
2017-06-23T07:13:17.754Z,49.41
2017-06-23T07:13:58.215Z,49.44
2017-06-23T07:14:38.677Z,49.8
2017-06-23T07:15:19.134Z,49.32
2017-06-23T07:15:59.589Z,49.22
2017-06-23T07:16:40.050Z,49.32
2017-06-23T07:17:20.504Z,49.41
2017-06-23T07:18:00.966Z,49.44
2017-06-23T07:18:41.423Z,49.32
2017-06-23T07:19:21.880Z,49.41
2017-06-23T07:20:02.337Z,49.51
2017-06-23T07:20:42.797Z,49.44
2017-06-23T07:21:23.254Z,49.54
2017-06-23T07:22:03.723Z,49.63
2017-06-23T07:22:44.182Z,49.54
2017-06-23T07:23:24.642Z,49.15
2017-06-23T07:24:05.102Z,49.05
2017-06-23T07:24:45.561Z,49.34
2017-06-23T07:25:26.019Z,49.34
2017-06-23T07:26:06.471Z,48.95
2017-06-23T07:26:46.929Z,49.15
2017-06-23T07:27:27.387Z,49.24
2017-06-23T07:28:07.845Z,49.24
2017-06-23T07:28:48.311Z,49.15
2017-06-23T07:29:28.769Z,49.15
2017-06-23T07:30:09.227Z,49.05
2017-06-23T07:30:49.686Z,49.24
2017-06-23T07:31:30.145Z,49.24
2017-06-23T07:32:10.605Z,49.15
2017-06-23T07:32:51.069Z,48.95
2017-06-23T07:33:31.529Z,48.85
2017-06-23T07:34:11.988Z,49.15
2017-06-23T07:34:52.452Z,49.15
2017-06-23T07:35:32.906Z,49.24
2017-06-23T07:36:13.364Z,49.24
2017-06-23T07:36:53.827Z,49.05
2017-06-23T07:37:34.282Z,48.85
2017-06-23T07:38:14.755Z,48.95
2017-06-23T07:38:55.216Z,49.15
2017-06-23T07:39:35.678Z,48.95
2017-06-23T07:40:16.140Z,49.15
2017-06-23T07:40:56.600Z,49.24
2017-06-23T07:41:37.063Z,49.05
2017-06-23T07:42:17.518Z,49.15
2017-06-23T07:42:57.982Z,49.05
2017-06-23T07:43:38.429Z,48.95
2017-06-23T07:44:18.892Z,48.85
2017-06-23T07:44:59.350Z,48.85
2017-06-23T07:45:39.808Z,48.75
2017-06-23T07:46:20.269Z,48.85
2017-06-23T07:47:00.730Z,48.85
2017-06-23T07:47:41.197Z,48.75
2017-06-23T07:48:21.659Z,48.66
2017-06-23T07:49:02.119Z,48.56
2017-06-23T07:49:42.578Z,48.56
2017-06-23T07:50:23.038Z,48.58
2017-06-23T07:51:03.498Z,48.85
2017-06-23T07:51:43.956Z,48.78
2017-06-23T07:52:24.413Z,48.88
2017-06-23T07:53:04.875Z,48.78
2017-06-23T07:53:45.330Z,48.78
2017-06-23T07:54:25.787Z,48.97
2017-06-23T07:55:06.244Z,48.97
2017-06-23T07:55:46.706Z,48.95
2017-06-23T07:56:27.163Z,48.75
2017-06-23T07:57:07.625Z,48.95
2017-06-23T07:57:48.085Z,48.66
2017-06-23T07:58:28.541Z,48.88
2017-06-23T07:59:09.004Z,48.68
2017-06-23T07:59:49.467Z,48.88
2017-06-23T08:00:29.925Z,48.88
2017-06-23T08:01:10.386Z,48.66
2017-06-23T08:01:50.858Z,48.68
2017-06-23T08:02:31.317Z,48.88
2017-06-23T08:03:11.776Z,48.78
2017-06-23T08:03:52.235Z,48.85
2017-06-23T08:04:32.694Z,48.97
2017-06-23T08:05:13.153Z,48.78
2017-06-23T08:05:53.613Z,49.05
2017-06-23T08:06:34.070Z,48.97
2017-06-23T08:07:14.530Z,49.07
2017-06-23T08:07:54.986Z,49.05
2017-06-23T08:08:35.436Z,49.05
2017-06-23T08:09:15.898Z,48.88
2017-06-23T08:09:56.357Z,48.97
2017-06-23T08:10:36.815Z,48.68
2017-06-23T08:11:17.271Z,48.88
2017-06-23T08:11:57.733Z,48.58
2017-06-23T08:12:38.192Z,49.07
2017-06-23T08:13:18.650Z,49.07
2017-06-23T08:13:59.103Z,49.07
2017-06-23T08:14:39.562Z,49.17
2017-06-23T08:15:20.024Z,49.17
2017-06-23T08:16:00.485Z,49.17
2017-06-23T08:16:40.947Z,48.88
2017-06-23T08:17:21.407Z,48.88
2017-06-23T08:18:01.862Z,48.68
2017-06-23T08:18:42.323Z,48.78
2017-06-23T08:19:22.794Z,48.78
2017-06-23T08:20:03.233Z,48.88
2017-06-23T08:20:43.694Z,48.78
2017-06-23T08:21:24.155Z,48.29
2017-06-23T08:22:04.607Z,48.19
2017-06-23T08:22:45.070Z,48.29
2017-06-23T08:23:25.539Z,48.29
2017-06-23T08:24:06.104Z,48.49
2017-06-23T08:24:46.440Z,48.39
2017-06-23T08:25:26.901Z,48.29
2017-06-23T08:26:07.359Z,48.58
2017-06-23T08:26:47.812Z,48.58
2017-06-23T08:27:28.275Z,48.29
2017-06-23T08:28:08.731Z,48.29
2017-06-23T08:28:49.194Z,48.49
2017-06-23T08:29:29.646Z,48.58
2017-06-23T08:30:10.106Z,48.97
2017-06-23T08:30:50.568Z,48.58
2017-06-23T08:31:31.025Z,48.39
2017-06-23T08:32:11.485Z,48.49
2017-06-23T08:32:51.941Z,48.78
2017-06-23T08:33:32.405Z,48.68
2017-06-23T08:34:12.865Z,48.78
2017-06-23T08:34:53.325Z,48.39
2017-06-23T08:35:33.784Z,48.19
2017-06-23T08:36:14.252Z,48.1
2017-06-23T08:36:54.715Z,47.9
2017-06-23T08:37:35.171Z,48.1
2017-06-23T08:38:15.630Z,48.19
2017-06-23T08:38:56.092Z,48.02
2017-06-23T08:39:36.557Z,48.22
2017-06-23T08:40:17.024Z,47.8
2017-06-23T08:40:57.477Z,48.12
2017-06-23T08:41:37.955Z,48.32
2017-06-23T08:42:18.407Z,48.22
2017-06-23T08:42:58.857Z,48.22
2017-06-23T08:43:39.307Z,48.29
2017-06-23T08:44:19.769Z,48.29
2017-06-23T08:45:00.206Z,48.1
2017-06-23T08:45:40.664Z,48.29
2017-06-23T08:46:21.122Z,48.32
2017-06-23T08:47:01.583Z,48.29
2017-06-23T08:47:42.083Z,48.32
2017-06-23T08:48:22.515Z,48.32